Accueil
METAR-TAF:

METAR-TAF

Aéroports :

Aéroport de Lyon-Bron

Lyon, France

latitude: 45-43N, longitude: 004-57E, altitude: 200 m

Observation

Le bulletin a été fait il y a 23 minutes, à 06:00 UTC
Vent 1 kt de direction variable
Température 22°C
Humidité 73%
Pression 1016 hPa
Visibilité 10 km ou plus
pas de nuages en-dessous de 1500 mètres et pas de cumulonimbus.

METAR: LFLY 110600Z AUTO VRB01KT CAVOK 22/17 Q1016 NOSIG

Heure: 08:23 (06:23 UTC)

Prévision

Le bulletin a été fait il y a 1 heure et 23 minutes, à 05:00 UTC
Prévision valable du 11 à 06 UTC au 12 à 06 UTC
Vent 6 kt de sud/sud-est
Visibilité 10 km ou plus
pas de nuages en-dessous de 1500 mètres et pas de cumulonimbus.
Probabilité 30% :
Temporairement
du 11 à 12 UTC au 11 à 18 UTC
Quelques nuages à une hauteur de 10000 ft, Cumulus congestus.

TAF: LFLY 110500Z 1106/1206 16006KT CAVOK PROB30 TEMPO 1112/1118 FEW100TCU

Observations et prévisions météorologiques de plus de 4000 aéroports (messages METAR et TAF).

Les stations disponibles sont représentées par des disques jaunes et rouges sur la carte.

Passer la souris dessus pour voir le nom de la station.

Cliquer dessus pour voir les observations et prévisions météorologiques.

Pour changer de carte: cliquez sur les boutons verts avec une croix noire pour zoomer, sur le bouton vert avec un tiret pour effectuer un zoom arrière, ou sur les flèches vertes pour les cartes adjacentes.


METAR-TAF: